Time;durP1;ratioP1;P1;durP2;ratioP2;P2;SDS_P1;SDS_P2;PMS_P1;PMS_P2;Temp;Humidity;BMP_temperature;BMP_pressure;BME280_temperature;BME280_humidity;BME280_pressure;Samples;Min_cycle;Max_cycle;Signal;HPM_P1;HPM_P2
2023/08/01 00:01:34;;;;;;;1.52;1.30;;;;;;;;;;4950879;28;20047;-36
2023/08/01 00:04:00;;;;;;;1.95;1.30;;;21.20;84.80;;;;;;4950615;28;20560;-32
2023/08/01 00:06:27;;;;;;;2.13;1.40;;;20.90;85.10;;;;;;4950820;28;20134;-33
2023/08/01 00:08:54;;;;;;;1.73;1.30;;;;;;;;;;4955143;28;20470;-34
2023/08/01 00:11:22;;;;;;;1.90;1.20;;;22.20;85.10;;;;;;4970283;28;20448;-32
2023/08/01 00:13:49;;;;;;;2.00;1.30;;;21.70;85.10;;;;;;4959471;28;20134;-32
2023/08/01 00:16:15;;;;;;;1.60;1.40;;;20.90;84.30;;;;;;4970210;28;20613;-32
2023/08/01 00:18:43;;;;;;;2.10;1.20;;;21.80;75.70;;;;;;4969959;28;20134;-35
2023/08/01 00:21:11;;;;;;;1.65;1.40;;;21.50;85.00;;;;;;4970067;28;20054;-32
2023/08/01 00:23:38;;;;;;;1.50;1.30;;;20.90;84.40;;;;;;4970059;28;20051;-32
2023/08/01 00:26:05;;;;;;;1.77;1.40;;;;;;;;;;4969821;28;20129;-34
2023/08/01 00:28:33;;;;;;;2.53;1.23;;;20.80;84.30;;;;;;4971860;28;20134;-32
2023/08/01 00:31:04;;;;;;;1.60;1.17;;;21.50;78.40;;;;;;4957337;28;20150;-32
2023/08/01 00:33:30;;;;;;;3.20;1.40;;;20.10;72.10;;;;;;4953745;28;20576;-33
2023/08/01 00:35:57;;;;;;;2.65;1.33;;;21.10;84.30;;;;;;4954718;28;20134;-32
2023/08/01 00:38:24;;;;;;;2.10;1.33;;;20.80;84.60;;;;;;4973072;28;20267;-32
2023/08/01 00:40:51;;;;;;;1.33;1.20;;;;;;;;;;4972904;28;20134;-36
2023/08/01 00:43:18;;;;;;;2.22;1.42;;;21.80;85.00;;;;;;4970766;28;20129;-33
2023/08/01 00:45:46;;;;;;;1.40;1.30;;;21.10;85.10;;;;;;4953763;28;20421;-32
2023/08/01 00:48:12;;;;;;;2.03;1.50;;;20.80;84.10;;;;;;4953834;28;20142;-32
2023/08/01 00:50:39;;;;;;;1.67;1.48;;;21.00;78.50;;;;;;4953377;28;20133;-32
2023/08/01 00:53:06;;;;;;;1.60;1.42;;;21.10;84.30;;;;;;4953331;28;20070;-32
2023/08/01 00:55:33;;;;;;;1.77;1.42;;;;;;;;;;4953680;28;20052;-36
2023/08/01 00:58:00;;;;;;;1.88;1.40;;;21.40;85.30;;;;;;4953451;28;20134;-32
2023/08/01 01:00:27;;;;;;;1.83;1.42;;;21.50;84.90;;;;;;4953414;28;20479;-32
2023/08/01 01:02:55;;;;;;;1.80;1.40;;;21.40;73.10;;;;;;4953259;28;20465;-33
2023/08/01 01:05:21;;;;;;;2.55;1.40;;;21.30;71.30;;;;;;4959703;28;20129;-34
2023/08/01 01:07:49;;;;;;;2.10;1.50;;;21.50;84.50;;;;;;4953979;28;20130;-33
2023/08/01 01:10:16;;;;;;;2.28;1.40;;;21.70;84.90;;;;;;4953338;28;20055;-32
2023/08/01 01:12:43;;;;;;;1.50;1.27;;;20.80;84.50;;;;;;4960719;28;20125;-32
2023/08/01 01:15:10;;;;;;;2.50;1.58;;;21.10;68.70;;;;;;4961644;28;20146;-36
2023/08/01 01:17:37;;;;;;;3.00;1.27;;;20.30;84.10;;;;;;4953522;28;20134;-32
2023/08/01 01:20:06;;;;;;;1.80;1.33;;;21.40;85.20;;;;;;4953409;28;20635;-32
2023/08/01 01:22:34;;;;;;;2.40;1.33;;;20.90;84.20;;;;;;4952958;28;20134;-32
2023/08/01 01:25:01;;;;;;;1.90;1.40;;;21.10;73.30;;;;;;4953108;28;20126;-32
2023/08/01 01:27:27;;;;;;;1.70;1.33;;;21.50;84.60;;;;;;4953198;28;20138;-31
2023/08/01 01:29:54;;;;;;;1.77;1.50;;;;;;;;;;4953248;28;20138;-36
2023/08/01 01:32:21;;;;;;;2.35;1.20;;;21.10;84.30;;;;;;4953917;28;20082;-32
2023/08/01 01:34:48;;;;;;;2.20;1.40;;;20.20;83.90;;;;;;4953030;28;20081;-32
2023/08/01 01:37:14;;;;;;;2.65;1.42;;;20.80;72.50;;;;;;4963749;28;20575;-32
2023/08/01 01:39:42;;;;;;;3.17;1.30;;;21.80;85.00;;;;;;4970094;28;20133;-32
2023/08/01 01:42:10;;;;;;;2.50;1.40;;;;;;;;;;4971770;28;20587;-32
2023/08/01 01:44:36;;;;;;;2.25;1.50;;;21.80;85.50;;;;;;4972185;28;20078;-32
2023/08/01 01:47:03;;;;;;;3.40;1.60;;;21.10;83.30;;;;;;4972403;28;20134;-32
2023/08/01 01:49:30;;;;;;;2.03;1.40;;;22.10;84.90;;;;;;4972305;28;20133;-33
2023/08/01 01:51:57;;;;;;;2.70;1.60;;;;;;;;;;4972181;28;20146;-35
2023/08/01 01:54:24;;;;;;;2.05;1.48;;;20.00;71.90;;;;;;4971681;28;20571;-33
2023/08/01 01:56:52;;;;;;;2.92;1.48;;;21.00;84.30;;;;;;4972151;28;20131;-33
2023/08/01 01:59:18;;;;;;;2.28;1.60;;;21.00;84.20;;;;;;4972077;28;20130;-32
2023/08/01 02:01:45;;;;;;;1.58;1.20;;;;;;;;;;4969127;28;20145;-36
2023/08/01 02:04:12;;;;;;;1.90;1.40;;;20.50;83.80;;;;;;4971639;28;20138;-32
2023/08/01 02:06:39;;;;;;;1.95;1.48;;;20.50;84.70;;;;;;4971873;28;20074;-32
2023/08/01 02:09:05;;;;;;;2.25;1.50;;;20.60;71.60;;;;;;4971750;28;20141;-33
2023/08/01 02:11:32;;;;;;;1.83;1.30;;;20.80;84.00;;;;;;4972045;28;20130;-34
2023/08/01 02:14:01;;;;;;;1.48;1.30;;;20.90;84.10;;;;;;4953787;28;20143;-32
2023/08/01 02:16:28;;;;;;;2.13;1.45;;;21.20;81.20;;;;;;4952380;28;20083;-33
2023/08/01 02:18:55;;;;;;;1.63;1.30;;;20.70;83.90;;;;;;4952459;28;20134;-33
2023/08/01 02:21:21;;;;;;;2.17;1.40;;;20.60;83.90;;;;;;4952338;28;20613;-32
2023/08/01 02:23:48;;;;;;;2.20;1.50;;;21.10;74.30;;;;;;4952118;28;20134;-32
2023/08/01 02:26:15;;;;;;;2.25;1.58;;;21.50;84.60;;;;;;4952365;28;20480;-32
2023/08/01 02:28:42;;;;;;;1.85;1.33;;;;;;;;;;4952259;28;20160;-32
2023/08/01 02:31:10;;;;;;;1.65;1.42;;;20.90;83.10;;;;;;4952488;28;20134;-33
2023/08/01 02:33:36;;;;;;;2.63;1.50;;;21.40;81.30;;;;;;4952078;28;20126;-32
2023/08/01 02:36:03;;;;;;;1.50;1.30;;;21.80;84.30;;;;;;4954743;28;20138;-32
2023/08/01 02:38:30;;;;;;;1.92;1.40;;;;;;;;;;4971343;28;20134;-37
2023/08/01 02:40:58;;;;;;;3.17;1.83;;;;;;;;;;4971244;28;20126;-33
2023/08/01 02:43:25;;;;;;;2.83;1.50;;;;;;;;;;4960708;28;20131;-35
2023/08/01 02:45:51;;;;;;;2.67;1.40;;;21.10;84.20;;;;;;4952015;28;20138;-32
2023/08/01 02:48:19;;;;;;;1.75;1.38;;;20.90;83.90;;;;;;4951917;28;20656;-32
2023/08/01 02:50:46;;;;;;;2.47;1.50;;;21.10;75.70;;;;;;4953585;28;20054;-33
2023/08/01 02:53:13;;;;;;;3.20;1.48;;;;;;;;;;4971183;28;20466;-32
2023/08/01 02:55:40;;;;;;;2.30;1.42;;;21.40;84.20;;;;;;4971147;28;20129;-32
2023/08/01 02:58:07;;;;;;;2.47;1.40;;;;;;;;;;4964406;28;20086;-37
2023/08/01 03:00:34;;;;;;;3.05;1.55;;;21.10;84.30;;;;;;4965381;28;20134;-32
2023/08/01 03:03:03;;;;;;;1.92;1.40;;;;;;;;;;4951515;28;20043;-33
2023/08/01 03:05:31;;;;;;;1.65;1.30;;;20.60;74.30;;;;;;4951489;28;20100;-33
2023/08/01 03:07:57;;;;;;;2.10;1.40;;;20.60;75.50;;;;;;4951953;28;20134;-32
2023/08/01 03:10:24;;;;;;;2.47;1.50;;;20.90;84.20;;;;;;4951740;28;20126;-32
2023/08/01 03:12:51;;;;;;;2.50;1.45;;;20.90;84.70;;;;;;4960049;28;20130;-32
2023/08/01 03:15:18;;;;;;;1.95;1.30;;;;;;;;;;4970851;28;20129;-35
2023/08/01 03:17:44;;;;;;;2.15;1.40;;;20.70;83.80;;;;;;4970671;28;20149;-32
2023/08/01 03:20:12;;;;;;;2.05;1.40;;;20.90;84.70;;;;;;4970876;28;20129;-33
2023/08/01 03:22:40;;;;;;;2.83;1.40;;;20.40;84.40;;;;;;4970524;28;20133;-32
2023/08/01 03:25:08;;;;;;;1.85;1.38;;;21.50;84.30;;;;;;4970082;28;20108;-32
2023/08/01 03:27:35;;;;;;;2.30;1.48;;;20.70;83.80;;;;;;4970376;28;20054;-32
2023/08/01 03:30:01;;;;;;;3.10;1.70;;;22.00;84.50;;;;;;4958674;28;20138;-33
2023/08/01 03:32:28;;;;;;;1.83;1.40;;;20.70;74.30;;;;;;4951269;28;20047;-33
2023/08/01 03:34:55;;;;;;;2.22;1.55;;;20.60;84.60;;;;;;4964192;28;20491;-32
2023/08/01 03:37:22;;;;;;;1.75;1.42;;;21.90;84.50;;;;;;4970415;28;20130;-31
2023/08/01 03:39:50;;;;;;;2.00;1.50;;;20.70;72.60;;;;;;4958250;28;20082;-35
2023/08/01 03:42:16;;;;;;;3.35;1.42;;;21.70;75.50;;;;;;4963227;28;20047;-33
2023/08/01 03:44:43;;;;;;;1.92;1.60;;;20.90;83.70;;;;;;4970592;28;20130;-32
2023/08/01 03:47:10;;;;;;;1.75;1.38;;;21.60;84.90;;;;;;4970356;28;20053;-32
2023/08/01 03:49:38;;;;;;;1.90;1.40;;;21.00;76.10;;;;;;4970416;28;20086;-34
2023/08/01 03:52:06;;;;;;;2.03;1.30;;;20.70;77.30;;;;;;4957656;28;20051;-33
2023/08/01 03:54:32;;;;;;;2.38;1.50;;;20.40;84.30;;;;;;4960481;28;20133;-32
2023/08/01 03:57:00;;;;;;;2.08;1.63;;;20.50;80.70;;;;;;4969039;28;20126;-32
2023/08/01 03:59:27;;;;;;;2.20;1.40;;;20.70;78.80;;;;;;4970490;28;20133;-34
2023/08/01 04:01:54;;;;;;;1.85;1.40;;;20.90;84.00;;;;;;4953110;28;20126;-30
2023/08/01 04:04:21;;;;;;;2.15;1.70;;;20.10;83.50;;;;;;4957240;28;20094;-31
2023/08/01 04:06:47;;;;;;;1.92;1.40;;;20.90;78.00;;;;;;4957094;28;20056;-31
2023/08/01 04:09:14;;;;;;;2.60;1.63;;;19.90;83.30;;;;;;4957220;28;20062;-31
2023/08/01 04:11:41;;;;;;;2.65;1.83;;;21.50;84.40;;;;;;4957451;28;20130;-31
2023/08/01 04:14:09;;;;;;;4.10;1.60;;;21.90;76.50;;;;;;4963629;28;20441;-31
2023/08/01 04:16:35;;;;;;;2.67;1.60;;;20.10;74.80;;;;;;4957636;28;20134;-32
2023/08/01 04:19:02;;;;;;;2.65;1.67;;;20.60;84.40;;;;;;4957073;28;20134;-31
2023/08/01 04:21:29;;;;;;;2.08;1.45;;;19.90;83.40;;;;;;4957331;28;20134;-31
2023/08/01 04:23:56;;;;;;;2.58;1.65;;;21.10;70.50;;;;;;4956967;28;20130;-33
2023/08/01 04:26:22;;;;;;;2.88;1.77;;;20.20;83.50;;;;;;4957022;28;20480;-30
2023/08/01 04:28:49;;;;;;;2.70;1.70;;;20.10;78.10;;;;;;4970410;28;20130;-31
2023/08/01 04:31:17;;;;;;;2.53;1.60;;;20.90;68.20;;;;;;4958114;28;20485;-36
2023/08/01 04:33:44;;;;;;;2.53;1.70;;;;;;;;;;4957115;28;20093;-35
2023/08/01 04:36:11;;;;;;;2.67;1.60;;;;;;;;;;4959297;28;20051;-31
2023/08/01 04:38:38;;;;;;;2.38;1.70;;;21.00;74.40;;;;;;4976091;28;20134;-31
2023/08/01 04:41:05;;;;;;;2.40;1.77;;;;;;;;;;4976311;28;20051;-33
2023/08/01 04:43:32;;;;;;;2.15;1.50;;;;;;;;;;4975960;28;20146;-35
2023/08/01 04:45:59;;;;;;;2.53;1.65;;;21.20;84.60;;;;;;4972423;28;20134;-31
2023/08/01 04:48:27;;;;;;;2.40;1.45;;;19.70;83.50;;;;;;4956793;28;20130;-30
2023/08/01 04:50:55;;;;;;;2.65;1.63;;;;;;;;;;4962795;28;20584;-30
2023/08/01 04:53:22;;;;;;;3.15;1.60;;;;;;;;;;4966075;28;20118;-31
2023/08/01 04:55:49;;;;;;;3.08;1.75;;;21.30;84.20;;;;;;4964926;28;20126;-31
2023/08/01 04:58:16;;;;;;;3.35;1.50;;;20.60;84.70;;;;;;4958728;28;20130;-33
2023/08/01 05:00:43;;;;;;;2.20;1.63;;;20.80;68.10;;;;;;4956803;28;20471;-34
2023/08/01 05:03:10;;;;;;;2.38;1.70;;;20.90;84.40;;;;;;4957733;28;20134;-31
2023/08/01 05:05:38;;;;;;;2.22;1.50;;;20.70;68.00;;;;;;4956712;28;20135;-35
2023/08/01 05:08:05;;;;;;;2.63;1.63;;;;;;;;;;4963903;28;20544;-35
2023/08/01 05:10:32;;;;;;;2.58;1.58;;;20.90;83.90;;;;;;4965038;28;20129;-31
2023/08/01 05:12:58;;;;;;;2.08;1.45;;;21.40;84.30;;;;;;4962706;28;20078;-32
2023/08/01 05:15:25;;;;;;;2.58;1.60;;;20.60;70.90;;;;;;4952360;28;20093;-34
2023/08/01 05:17:53;;;;;;;3.92;1.60;;;21.10;84.40;;;;;;4953437;28;20058;-31
2023/08/01 05:20:20;;;;;;;2.42;1.50;;;20.30;84.50;;;;;;4956743;28;20141;-32
2023/08/01 05:22:48;;;;;;;3.28;1.40;;;20.90;84.20;;;;;;4970817;28;20139;-31
2023/08/01 05:25:15;;;;;;;2.35;1.50;;;20.80;73.60;;;;;;4972489;28;20138;-30
2023/08/01 05:27:42;;;;;;;3.50;1.60;;;;;;;;;;4972496;28;20134;-35
2023/08/01 05:30:10;;;;;;;3.45;1.63;;;21.10;84.00;;;;;;4972242;28;20138;-30
2023/08/01 05:32:36;;;;;;;2.22;1.40;;;21.20;84.90;;;;;;4972138;28;20125;-31
2023/08/01 05:35:03;;;;;;;2.38;1.50;;;21.40;84.20;;;;;;4971259;28;20137;-31
2023/08/01 05:37:30;;;;;;;2.38;1.42;;;;;;;;;;4971361;28;20138;-31
2023/08/01 05:39:58;;;;;;;2.38;1.48;;;21.00;84.00;;;;;;4971910;28;20142;-32
2023/08/01 05:42:25;;;;;;;2.90;1.50;;;20.50;84.00;;;;;;4971933;28;20130;-31
2023/08/01 05:44:52;;;;;;;1.77;1.45;;;;;;;;;;4972254;28;20097;-35
2023/08/01 05:47:19;;;;;;;1.80;1.30;;;19.80;83.40;;;;;;4963295;28;20133;-30
2023/08/01 05:49:46;;;;;;;2.50;1.50;;;21.00;84.40;;;;;;4957082;28;20083;-31
2023/08/01 05:52:12;;;;;;;2.13;1.42;;;20.50;71.30;;;;;;4952919;28;20134;-35
2023/08/01 05:54:39;;;;;;;3.13;1.60;;;20.60;72.10;;;;;;4956732;28;20134;-35
2023/08/01 05:57:09;;;;;;;2.25;1.55;;;20.10;67.60;;;;;;4962777;28;20134;-36
2023/08/01 05:59:36;;;;;;;1.95;1.25;;;;;;;;;;4962448;28;20212;-39
2023/08/01 06:02:03;;;;;;;1.58;1.30;;;20.40;72.70;;;;;;4961080;28;20126;-31
2023/08/01 06:04:29;;;;;;;2.50;1.35;;;19.60;83.20;;;;;;4961301;28;20054;-31
2023/08/01 06:06:57;;;;;;;3.05;1.42;;;20.50;84.00;;;;;;4961282;28;20560;-31
2023/08/01 06:09:23;;;;;;;3.25;1.30;;;21.70;75.70;;;;;;4960791;28;20053;-31
2023/08/01 06:11:50;;;;;;;1.70;1.30;;;20.70;83.80;;;;;;4970633;28;20134;-30
2023/08/01 06:14:18;;;;;;;1.63;1.20;;;20.70;67.80;;;;;;4952382;28;20122;-33
2023/08/01 06:16:45;;;;;;;2.97;1.40;;;;;;;;;;4952475;28;20134;-33
2023/08/01 06:19:12;;;;;;;2.15;1.40;;;20.40;84.30;;;;;;4952250;28;20139;-40
2023/08/01 06:21:38;;;;;;;2.67;1.50;;;21.30;84.80;;;;;;4952413;28;20130;-38
2023/08/01 06:24:05;;;;;;;2.55;1.30;;;20.80;71.00;;;;;;4952219;28;20130;-35
2023/08/01 06:26:32;;;;;;;2.95;1.52;;;20.90;74.00;;;;;;4956962;28;20092;-36
2023/08/01 06:28:59;;;;;;;2.42;1.35;;;20.90;83.80;;;;;;4962601;28;20479;-37
2023/08/01 06:31:27;;;;;;;1.70;1.13;;;20.60;70.70;;;;;;4971501;28;20076;-36
2023/08/01 06:33:54;;;;;;;2.65;1.73;;;;;;;;;;4970477;28;20130;-37
2023/08/01 06:36:21;;;;;;;2.25;1.25;;;19.70;81.90;;;;;;4970838;28;20419;-40
2023/08/01 06:38:48;;;;;;;2.08;1.40;;;;;;;;;;4971021;28;20134;-38
2023/08/01 06:41:15;;;;;;;3.13;1.58;;;19.90;84.20;;;;;;4971504;28;20097;-38
2023/08/01 06:43:42;;;;;;;1.95;1.30;;;20.50;71.20;;;;;;4957932;28;20053;-37
2023/08/01 06:46:09;;;;;;;1.58;1.15;;;21.20;82.70;;;;;;4968743;28;20055;-37
2023/08/01 06:48:37;;;;;;;4.65;1.40;;;19.30;68.30;;;;;;4968020;28;20048;-36
2023/08/01 06:51:04;;;;;;;1.77;1.10;;;20.70;67.80;;;;;;4956290;28;20134;-36
2023/08/01 06:53:31;;;;;;;2.92;1.13;;;21.20;71.20;;;;;;4956248;28;20126;-37
2023/08/01 06:55:57;;;;;;;1.92;1.17;;;19.60;76.20;;;;;;4971199;28;20133;-37
2023/08/01 06:58:24;;;;;;;2.15;1.23;;;;;;;;;;4970274;28;20475;-35
2023/08/01 07:00:52;;;;;;;1.52;1.15;;;;;;;;;;4970943;28;20074;-40
2023/08/01 07:03:19;;;;;;;2.05;1.10;;;;;;;;;;4970841;28;20135;-37
2023/08/01 07:05:47;;;;;;;2.55;1.30;;;19.80;83.30;;;;;;4971135;28;20082;-40
2023/08/01 07:08:13;;;;;;;1.92;1.30;;;20.80;80.70;;;;;;4970905;28;20130;-38
2023/08/01 07:10:40;;;;;;;2.03;1.20;;;21.60;84.20;;;;;;4967079;28;20134;-36
2023/08/01 07:13:07;;;;;;;1.80;1.30;;;20.90;76.40;;;;;;4962573;28;20125;-38
2023/08/01 07:15:34;;;;;;;2.40;1.30;;;19.90;83.20;;;;;;4966405;28;20126;-37
2023/08/01 07:18:01;;;;;;;1.40;1.10;;;;;;;;;;4951876;28;20482;-33
2023/08/01 07:20:27;;;;;;;2.60;1.20;;;21.40;84.10;;;;;;4956809;28;20472;-36
2023/08/01 07:22:55;;;;;;;2.20;1.15;;;20.50;84.00;;;;;;4963348;28;20130;-36
2023/08/01 07:25:22;;;;;;;1.83;1.40;;;21.40;84.90;;;;;;4960292;28;20126;-37
2023/08/01 07:27:49;;;;;;;2.08;1.20;;;;;;;;;;4951186;29;20589;-33
2023/08/01 07:30:16;;;;;;;1.63;1.20;;;20.50;83.60;;;;;;4951823;28;20471;-30
2023/08/01 07:32:43;;;;;;;2.33;1.38;;;20.40;84.30;;;;;;4963596;28;20145;-30
2023/08/01 07:35:10;;;;;;;1.70;1.10;;;20.60;73.00;;;;;;4959826;28;20051;-32
2023/08/01 07:37:37;;;;;;;2.20;1.20;;;21.40;84.20;;;;;;4960723;28;20083;-30
2023/08/01 07:40:06;;;;;;;1.63;1.02;;;21.40;84.40;;;;;;4957033;28;20055;-31
2023/08/01 07:42:33;;;;;;;1.83;1.20;;;20.40;84.40;;;;;;4957137;28;20055;-31
2023/08/01 07:45:00;;;;;;;2.03;1.20;;;;;;;;;;4950917;28;20572;-36
2023/08/01 07:47:26;;;;;;;1.90;1.17;;;21.70;84.50;;;;;;4951195;28;20576;-31
2023/08/01 07:49:53;;;;;;;3.15;1.20;;;20.20;77.30;;;;;;4953361;28;20126;-31
2023/08/01 07:52:20;;;;;;;1.85;1.10;;;20.70;70.10;;;;;;4955531;28;20129;-33
2023/08/01 07:54:47;;;;;;;1.73;1.20;;;21.30;84.70;;;;;;4954260;28;20459;-31
2023/08/01 07:57:15;;;;;;;1.70;1.10;;;20.50;84.30;;;;;;4965964;28;20086;-30
2023/08/01 07:59:42;;;;;;;2.08;1.30;;;;;;;;;;4970350;28;20058;-35
2023/08/01 08:02:09;;;;;;;2.22;1.17;;;20.70;83.60;;;;;;4951122;28;20138;-31
2023/08/01 08:04:36;;;;;;;1.60;1.10;;;20.80;84.00;;;;;;4950764;28;20127;-30
2023/08/01 08:07:03;;;;;;;1.92;1.20;;;;;;;;;;4950832;28;20133;-34
2023/08/01 08:09:29;;;;;;;1.52;1.10;;;20.70;83.90;;;;;;4961404;28;20144;-31
2023/08/01 08:11:57;;;;;;;1.20;1.10;;;20.50;83.80;;;;;;4968428;28;20126;-30
2023/08/01 08:14:25;;;;;;;1.77;1.30;;;20.70;67.60;;;;;;4970010;28;20117;-31
2023/08/01 08:16:52;;;;;;;2.53;1.38;;;19.50;83.40;;;;;;4970319;28;20051;-32
2023/08/01 08:19:19;;;;;;;2.33;1.30;;;;;;;;;;4967547;28;20138;-35
2023/08/01 08:21:46;;;;;;;1.33;1.00;;;20.10;78.90;;;;;;4968135;28;20133;-30
2023/08/01 08:24:12;;;;;;;1.50;1.10;;;20.50;83.40;;;;;;4952855;28;20079;-31
2023/08/01 08:26:39;;;;;;;2.25;1.10;;;20.60;69.90;;;;;;4962838;28;20130;-33
2023/08/01 08:29:06;;;;;;;1.60;1.10;;;21.20;74.10;;;;;;4968934;28;20058;-33
2023/08/01 08:31:34;;;;;;;2.00;1.20;;;20.70;67.50;;;;;;4968930;28;20598;-35
2023/08/01 08:34:01;;;;;;;2.28;1.20;;;;;;;;;;4968987;28;20126;-30
2023/08/01 08:36:28;;;;;;;2.60;1.17;;;20.00;83.20;;;;;;4958357;28;20142;-30
2023/08/01 08:38:55;;;;;;;3.58;1.35;;;20.50;83.80;;;;;;4968498;28;20109;-31
2023/08/01 08:41:22;;;;;;;1.98;1.10;;;20.70;67.50;;;;;;4966494;28;20069;-34
2023/08/01 08:43:49;;;;;;;2.08;1.20;;;21.20;84.10;;;;;;4968214;28;20043;-30
2023/08/01 08:46:16;;;;;;;2.33;1.10;;;21.10;79.50;;;;;;4969343;28;20133;-32
2023/08/01 08:48:46;;;;;;;3.80;1.40;;;20.40;83.80;;;;;;4961948;28;20055;-30
2023/08/01 08:51:13;;;;;;;4.25;1.30;;;20.80;83.70;;;;;;4951517;28;20570;-31
2023/08/01 08:53:40;;;;;;;3.53;1.27;;;;;;;;;;4952679;28;20134;-30
2023/08/01 08:56:06;;;;;;;2.88;1.33;;;20.00;83.50;;;;;;4952314;28;20134;-31
2023/08/01 08:58:33;;;;;;;2.28;1.20;;;20.50;83.60;;;;;;4954082;28;20055;-30
2023/08/01 09:01:00;;;;;;;2.33;1.42;;;;;;;;;;4951735;28;20110;-34
2023/08/01 09:03:27;;;;;;;2.65;1.17;;;21.20;73.40;;;;;;4951311;28;20130;-31
2023/08/01 09:06:00;;;;;;;1.95;1.20;;;20.70;67.50;;;;;;4951645;28;20131;-35
2023/08/01 09:08:26;;;;;;;2.10;1.30;;;21.50;75.00;;;;;;4951624;28;20134;-32
2023/08/01 09:10:53;;;;;;;3.22;1.20;;;;;;;;;;4952635;28;20058;-31
2023/08/01 09:13:21;;;;;;;2.80;1.40;;;;;;;;;;4963325;28;20130;-33
2023/08/01 09:15:47;;;;;;;2.60;1.20;;;20.80;84.40;;;;;;4959741;28;20134;-31
2023/08/01 09:18:14;;;;;;;1.73;1.13;;;;;;;;;;4950948;28;20154;-35
2023/08/01 09:20:43;;;;;;;2.50;1.23;;;20.80;67.60;;;;;;4956569;28;20136;-31
2023/08/01 09:23:11;;;;;;;2.90;1.20;;;21.50;84.50;;;;;;4955474;28;20133;-36
2023/08/01 09:25:38;;;;;;;2.47;1.20;;;;;;;;;;4963837;28;20484;-35
2023/08/01 09:28:16;;;;;;;2.22;1.20;;;21.10;84.40;;;;;;4952252;28;20526;-38
2023/08/01 09:30:47;;;;;;;4.68;1.55;;;20.80;67.60;;;;;;4961053;28;20047;-34
2023/08/01 09:33:14;;;;;;;2.50;1.30;;;20.80;76.80;;;;;;4950292;28;20462;-37
2023/08/01 09:35:41;;;;;;;3.97;1.35;;;20.50;83.20;;;;;;4951963;28;20130;-37
2023/08/01 09:38:07;;;;;;;1.65;1.05;;;20.90;77.90;;;;;;4969181;28;20058;-36
2023/08/01 09:40:38;;;;;;;2.50;1.05;;;20.90;80.20;;;;;;4970813;28;20089;-36
2023/08/01 09:43:05;;;;;;;1.60;1.08;;;20.50;83.60;;;;;;4959936;28;20138;-36
2023/08/01 09:45:32;;;;;;;1.80;1.20;;;20.80;67.50;;;;;;4951930;28;20047;-36
2023/08/01 09:47:59;;;;;;;2.10;1.05;;;;;;;;;;4951489;28;20492;-36
2023/08/01 09:50:26;;;;;;;2.33;1.40;;;;;;;;;;4951107;28;20130;-33
2023/08/01 09:52:53;;;;;;;2.47;1.25;;;20.80;83.20;;;;;;4952193;28;20130;-37
2023/08/01 09:55:20;;;;;;;2.20;1.20;;;20.90;67.40;;;;;;4952886;28;20061;-33
2023/08/01 09:57:48;;;;;;;2.65;1.38;;;21.20;83.30;;;;;;4961535;28;20516;-30
2023/08/01 10:00:15;;;;;;;3.13;1.00;;;20.00;69.20;;;;;;4971513;28;20133;-31
2023/08/01 10:02:42;;;;;;;2.60;1.45;;;;;;;;;;4962104;28;20091;-35
2023/08/01 10:05:10;;;;;;;1.63;1.20;;;21.10;69.80;;;;;;4969559;28;20134;-31
2023/08/01 10:07:37;;;;;;;2.00;1.20;;;22.00;84.00;;;;;;4967645;28;20134;-32
2023/08/01 10:10:04;;;;;;;2.50;1.20;;;20.20;83.10;;;;;;4952619;28;20197;-31
2023/08/01 10:12:31;;;;;;;2.25;1.30;;;21.00;83.40;;;;;;4958586;28;20051;-31
2023/08/01 10:14:59;;;;;;;1.95;1.10;;;20.70;82.90;;;;;;4952220;28;20130;-31
2023/08/01 10:17:26;;;;;;;3.60;1.38;;;21.60;84.10;;;;;;4957526;28;20496;-31
2023/08/01 10:19:55;;;;;;;6.68;1.30;;;;;;;;;;4958554;28;20135;-32
2023/08/01 10:22:22;;;;;;;1.42;1.05;;;;;;;;;;4967530;28;20047;-35
2023/08/01 10:24:49;;;;;;;1.75;1.08;;;21.00;83.70;;;;;;4955482;28;20101;-30
2023/08/01 10:27:19;;;;;;;2.65;1.27;;;21.50;83.40;;;;;;4952469;29;20147;-30
2023/08/01 10:29:46;;;;;;;2.67;1.10;;;21.30;83.40;;;;;;4952550;28;20130;-31
2023/08/01 10:32:14;;;;;;;2.03;1.02;;;21.00;82.60;;;;;;4952423;28;20126;-30
2023/08/01 10:34:41;;;;;;;2.50;1.10;;;21.50;83.50;;;;;;4952379;28;20122;-30
2023/08/01 10:37:07;;;;;;;2.97;1.15;;;21.70;74.20;;;;;;4969071;28;20142;-32
2023/08/01 10:39:34;;;;;;;3.03;1.23;;;20.80;82.40;;;;;;4971280;28;20086;-38
2023/08/01 10:42:02;;;;;;;2.30;1.20;;;;;;;;;;4971514;28;20139;-33
2023/08/01 10:44:30;;;;;;;2.70;1.10;;;21.50;82.50;;;;;;4971134;28;20051;-39
2023/08/01 10:46:59;;;;;;;1.83;1.02;;;21.20;83.20;;;;;;4968394;28;20054;-35
2023/08/01 10:49:36;;;;;;;2.90;1.15;;;20.80;68.30;;;;;;4952159;28;20126;-36
2023/08/01 10:52:04;;;;;;;2.85;1.02;;;21.60;66.50;;;;;;4967147;28;20167;-31
2023/08/01 10:54:34;;;;;;;1.85;1.23;;;;;;;;;;4970990;28;20580;-35
2023/08/01 10:57:01;;;;;;;2.35;1.08;;;21.60;81.80;;;;;;4970884;28;20065;-36
2023/08/01 10:59:28;;;;;;;2.83;1.35;;;21.60;81.80;;;;;;4968064;28;20077;-38
2023/08/01 11:01:59;;;;;;;1.50;1.10;;;21.80;75.40;;;;;;4962434;28;20126;-35
2023/08/01 11:04:25;;;;;;;3.60;1.27;;;22.30;82.80;;;;;;4952630;28;20151;-37
2023/08/01 11:06:55;;;;;;;5.30;1.20;;;21.50;69.60;;;;;;4966965;28;20503;-35
2023/08/01 11:09:22;;;;;;;2.95;1.10;;;;;;;;;;4969902;28;20046;-37
2023/08/01 11:11:50;;;;;;;1.30;1.00;;;22.20;80.80;;;;;;4966651;28;20138;-38
2023/08/01 11:14:17;;;;;;;1.48;0.95;;;21.30;81.40;;;;;;4959138;28;20122;-37
2023/08/01 11:16:44;;;;;;;1.77;1.30;;;;;;;;;;4950609;28;20462;-35
2023/08/01 11:19:21;;;;;;;1.48;0.90;;;21.70;66.10;;;;;;4955372;28;20061;-35
2023/08/01 11:21:48;;;;;;;3.65;1.10;;;22.70;82.20;;;;;;4960969;28;20126;-39
2023/08/01 11:24:16;;;;;;;1.67;1.10;;;21.70;66.10;;;;;;4960141;28;20576;-36
2023/08/01 11:26:43;;;;;;;2.15;1.00;;;21.40;72.90;;;;;;4956832;28;20150;-35
2023/08/01 11:29:10;;;;;;;2.65;1.10;;;21.50;81.60;;;;;;4960027;28;20047;-36
2023/08/01 11:31:38;;;;;;;1.75;0.95;;;;;;;;;;4961087;28;20558;-37
2023/08/01 11:34:05;;;;;;;2.22;1.20;;;22.10;74.40;;;;;;4956891;28;20657;-36
2023/08/01 11:36:31;;;;;;;3.92;1.10;;;22.00;77.90;;;;;;4955639;28;20563;-31
2023/08/01 11:38:58;;;;;;;1.67;1.10;;;21.20;81.30;;;;;;4969569;28;20134;-31
2023/08/01 11:41:26;;;;;;;2.10;1.00;;;21.10;69.40;;;;;;4967037;28;20770;-33
2023/08/01 11:43:54;;;;;;;3.88;1.00;;;;;;;;;;4949769;28;20631;-33
2023/08/01 11:46:21;;;;;;;1.83;0.95;;;;;;;;;;4952676;28;20660;-37
2023/08/01 11:48:49;;;;;;;1.20;0.90;;;22.20;81.80;;;;;;4969198;28;20415;-31
2023/08/01 11:51:16;;;;;;;2.92;1.10;;;22.60;82.30;;;;;;4969514;28;20047;-31
2023/08/01 11:53:43;;;;;;;2.15;0.90;;;;;;;;;;4965532;28;20130;-35
2023/08/01 11:56:20;;;;;;;1.42;1.08;;;22.50;67.90;;;;;;4959856;28;20126;-33
2023/08/01 11:58:48;;;;;;;1.48;0.90;;;20.90;81.40;;;;;;4961747;28;20055;-31
2023/08/01 12:01:15;;;;;;;1.38;1.00;;;21.40;82.30;;;;;;4957846;28;20051;-32
2023/08/01 12:03:45;;;;;;;1.42;0.80;;;21.90;68.60;;;;;;4956722;28;20138;-33
2023/08/01 12:06:13;;;;;;;3.15;1.10;;;;;;;;;;4995553;28;20087;-36
2023/08/01 12:08:40;;;;;;;1.80;1.00;;;;;;;;;;4957346;28;20054;-35
2023/08/01 12:11:07;;;;;;;1.50;0.98;;;21.10;82.10;;;;;;4957731;28;20125;-31
2023/08/01 12:13:33;;;;;;;1.73;0.95;;;20.80;81.50;;;;;;4957046;28;20354;-31
2023/08/01 12:16:02;;;;;;;1.77;1.13;;;22.50;73.00;;;;;;4966833;28;20129;-32
2023/08/01 12:18:30;;;;;;;2.03;1.00;;;21.70;66.10;;;;;;4954748;28;20094;-34
2023/08/01 12:20:57;;;;;;;1.83;1.00;;;21.20;82.00;;;;;;4956431;28;20057;-31
2023/08/01 12:23:24;;;;;;;2.72;1.15;;;22.20;78.60;;;;;;4950709;28;20126;-32
2023/08/01 12:25:51;;;;;;;1.98;1.45;;;21.80;67.80;;;;;;4953920;28;20043;-32
2023/08/01 12:28:17;;;;;;;1.75;1.00;;;22.30;81.80;;;;;;4953316;28;20133;-31
2023/08/01 12:30:45;;;;;;;2.97;1.00;;;;;;;;;;4953028;28;20580;-34
2023/08/01 12:33:13;;;;;;;1.35;0.90;;;21.00;81.10;;;;;;4953887;28;20101;-31
2023/08/01 12:35:41;;;;;;;3.58;1.00;;;21.60;81.80;;;;;;4969125;28;20447;-31
2023/08/01 12:38:08;;;;;;;1.38;1.00;;;21.40;74.90;;;;;;4971315;28;20042;-32
2023/08/01 12:40:34;;;;;;;1.83;0.95;;;21.90;82.10;;;;;;4954519;28;20139;-30
2023/08/01 12:43:01;;;;;;;3.50;1.08;;;21.70;75.50;;;;;;4953906;28;20124;-32
2023/08/01 12:45:28;;;;;;;1.58;0.85;;;20.60;80.90;;;;;;4969101;28;20090;-31
2023/08/01 12:47:55;;;;;;;1.98;1.10;;;21.90;81.60;;;;;;4973306;28;20051;-31
2023/08/01 12:50:23;;;;;;;1.85;1.10;;;22.10;77.80;;;;;;4972722;28;20125;-31
2023/08/01 12:52:50;;;;;;;1.65;1.05;;;;;;;;;;4968503;28;20130;-32
2023/08/01 12:55:16;;;;;;;1.83;1.05;;;21.60;81.80;;;;;;4953990;28;20122;-31
2023/08/01 12:57:44;;;;;;;2.75;1.20;;;;;;;;;;4953887;28;20074;-34
2023/08/01 13:00:11;;;;;;;1.40;0.85;;;20.80;80.90;;;;;;4956878;28;20826;-31
2023/08/01 13:02:38;;;;;;;3.55;0.90;;;22.20;73.10;;;;;;4971187;28;20054;-31
2023/08/01 13:05:05;;;;;;;2.22;1.08;;;21.60;81.30;;;;;;4968672;28;20125;-31
2023/08/01 13:07:34;;;;;;;2.53;1.00;;;22.60;68.20;;;;;;4965306;28;20137;-32